Time;durP1;ratioP1;P1;durP2;ratioP2;P2;SDS_P1;SDS_P2;PMS_P1;PMS_P2;Temp;Humidity;BMP_temperature;BMP_pressure;BME280_temperature;BME280_humidity;BME280_pressure;Samples;Min_cycle;Max_cycle;Signal;HPM_P1;HPM_P2
2021/08/28 00:01:07;;;;;;;14.27;9.82;;;15.90;99.90;;;;;;5075654;28;20463;-87
2021/08/28 00:03:32;;;;;;;13.55;10.60;;;15.90;99.90;;;;;;5075802;28;20079;-87
2021/08/28 00:05:58;;;;;;;15.30;10.85;;;15.80;99.90;;;;;;5074540;28;20029;-87
2021/08/28 00:08:24;;;;;;;13.68;10.85;;;15.80;99.90;;;;;;5075811;28;20027;-87
2021/08/28 00:10:49;;;;;;;16.45;10.85;;;15.80;99.90;;;;;;5074297;28;20381;-87
2021/08/28 00:13:16;;;;;;;15.43;10.98;;;15.80;99.90;;;;;;5074137;28;20025;-87
2021/08/28 00:15:42;;;;;;;14.07;11.25;;;15.80;99.90;;;;;;5075743;28;20044;-87
2021/08/28 00:18:08;;;;;;;18.20;13.35;;;15.80;99.90;;;;;;5075779;28;20024;-87
2021/08/28 00:20:35;;;;;;;17.65;14.18;;;15.80;99.90;;;;;;5075393;28;20151;-87
2021/08/28 00:23:05;;;;;;;18.60;13.35;;;15.80;99.90;;;;;;5074187;28;20039;-87
2021/08/28 00:25:32;;;;;;;18.42;13.07;;;15.80;99.90;;;;;;5075226;28;20028;-87
2021/08/28 00:27:58;;;;;;;17.67;12.18;;;15.80;99.90;;;;;;5074079;28;20050;-87
2021/08/28 00:30:24;;;;;;;15.50;11.77;;;15.80;99.90;;;;;;5075339;28;20527;-87
2021/08/28 00:32:49;;;;;;;15.30;11.32;;;15.80;99.90;;;;;;5075225;28;20036;-87
2021/08/28 00:35:15;;;;;;;15.43;11.75;;;15.70;99.90;;;;;;5074997;28;20467;-87
2021/08/28 00:37:41;;;;;;;17.25;11.85;;;15.70;99.90;;;;;;5075141;28;20024;-87
2021/08/28 00:40:07;;;;;;;16.33;12.75;;;15.70;99.90;;;;;;5074966;28;20025;-87
2021/08/28 00:42:44;;;;;;;18.25;12.25;;;15.70;99.90;;;;;;5074789;28;20082;-87
2021/08/28 00:45:11;;;;;;;15.38;11.27;;;15.70;99.90;;;;;;5075195;28;20032;-87
2021/08/28 00:47:37;;;;;;;16.05;12.23;;;15.60;99.90;;;;;;5074914;28;20024;-87
2021/08/28 00:50:03;;;;;;;17.05;12.20;;;15.70;99.90;;;;;;5073732;28;20140;-87
2021/08/28 00:52:28;;;;;;;15.73;11.85;;;15.60;99.90;;;;;;5074531;28;20071;-87
2021/08/28 00:54:54;;;;;;;13.02;10.85;;;15.60;99.90;;;;;;5072789;28;20041;-87
2021/08/28 00:57:21;;;;;;;17.33;12.80;;;15.60;99.90;;;;;;5074254;28;20482;-87
2021/08/28 00:59:47;;;;;;;13.98;11.35;;;15.50;99.90;;;;;;5074942;28;20056;-87
2021/08/28 01:02:13;;;;;;;15.30;11.32;;;15.50;99.90;;;;;;5074697;28;20051;-87
2021/08/28 01:05:03;;;;;;;14.50;11.18;;;15.50;99.90;;;;;;5074760;28;20375;-87
2021/08/28 01:07:52;;;;;;;13.98;9.85;;;15.50;99.90;;;;;;5073300;28;20491;-87
2021/08/28 01:10:21;;;;;;;13.40;10.35;;;15.50;99.90;;;;;;5074493;28;20021;-87
2021/08/28 01:12:52;;;;;;;13.98;9.98;;;15.50;99.90;;;;;;5072772;28;20055;-87
2021/08/28 01:15:23;;;;;;;16.58;12.23;;;15.50;99.90;;;;;;5073133;28;20029;-87
2021/08/28 01:17:51;;;;;;;14.57;10.50;;;15.50;99.90;;;;;;5072838;28;20028;-87
2021/08/28 01:20:38;;;;;;;14.18;10.82;;;15.50;99.90;;;;;;5074381;28;20028;-87
2021/08/28 01:23:09;;;;;;;13.80;9.90;;;15.40;99.90;;;;;;5074523;28;20035;-87
2021/08/28 01:25:35;;;;;;;12.80;9.50;;;15.40;99.90;;;;;;5074693;28;20409;-87
2021/08/28 01:28:05;;;;;;;13.45;10.55;;;15.30;99.90;;;;;;5073993;28;20025;-87
2021/08/28 01:30:33;;;;;;;12.38;9.85;;;15.40;99.90;;;;;;5072965;28;20032;-87
2021/08/28 01:33:03;;;;;;;12.77;9.60;;;15.30;99.90;;;;;;5073362;28;20450;-87
2021/08/28 01:35:29;;;;;;;11.60;8.98;;;15.30;99.90;;;;;;5072696;28;20555;-87
2021/08/28 01:37:58;;;;;;;12.60;10.43;;;15.30;99.90;;;;;;5072602;28;20383;-87
2021/08/28 01:40:25;;;;;;;16.45;10.43;;;15.30;99.90;;;;;;5072634;28;20029;-87
2021/08/28 01:42:52;;;;;;;17.58;12.32;;;15.30;99.90;;;;;;5074008;28;20031;-87
2021/08/28 01:45:22;;;;;;;16.77;12.23;;;15.30;99.90;;;;;;5075489;28;20372;-87
2021/08/28 01:47:49;;;;;;;18.90;12.07;;;15.30;99.90;;;;;;5082780;28;20383;-87
2021/08/28 01:50:18;;;;;;;14.90;11.15;;;15.30;99.90;;;;;;5082275;28;20028;-88
2021/08/28 01:52:45;;;;;;;16.88;12.48;;;15.30;99.90;;;;;;5078115;28;20364;-87
2021/08/28 01:55:11;;;;;;;19.95;13.38;;;15.30;99.90;;;;;;5073927;28;20067;-87
2021/08/28 01:57:37;;;;;;;18.90;13.98;;;15.30;99.90;;;;;;5074132;28;20029;-87
2021/08/28 02:00:03;;;;;;;21.35;13.68;;;15.20;99.90;;;;;;5072431;28;20483;-87
2021/08/28 02:02:29;;;;;;;17.00;12.93;;;15.30;99.90;;;;;;5073604;28;20024;-87
2021/08/28 02:04:55;;;;;;;16.83;12.73;;;15.20;99.90;;;;;;5072309;28;20459;-87
2021/08/28 02:07:31;;;;;;;14.13;11.27;;;15.20;99.90;;;;;;5073248;28;20024;-87
2021/08/28 02:10:15;;;;;;;17.05;11.93;;;15.30;99.90;;;;;;5073444;28;20024;-87
2021/08/28 02:12:44;;;;;;;13.63;9.77;;;15.30;99.90;;;;;;5073662;28;20098;-87
2021/08/28 02:15:35;;;;;;;14.63;11.57;;;15.40;99.90;;;;;;5072061;28;20040;-87
2021/08/28 02:18:08;;;;;;;12.93;9.80;;;15.50;99.90;;;;;;5072811;28;20072;-88
2021/08/28 02:20:38;;;;;;;11.20;8.48;;;15.60;99.90;;;;;;5072105;28;20077;-88
2021/08/28 02:23:17;;;;;;;13.48;9.70;;;15.70;99.90;;;;;;5072388;28;20051;-87
2021/08/28 02:26:03;;;;;;;13.35;9.85;;;15.80;99.90;;;;;;5072383;28;20039;-87
2021/08/28 02:28:37;;;;;;;14.57;10.25;;;15.90;99.90;;;;;;5073384;28;20029;-87
2021/08/28 02:31:04;;;;;;;12.05;9.68;;;16.00;99.90;;;;;;5072237;28;20020;-87
2021/08/28 02:33:31;;;;;;;13.65;10.25;;;16.10;99.90;;;;;;5073428;28;20029;-87
2021/08/28 02:36:00;;;;;;;15.07;10.48;;;16.20;99.90;;;;;;5072125;28;20106;-87
2021/08/28 02:38:27;;;;;;;11.98;10.10;;;16.20;99.90;;;;;;5073375;28;20482;-87
2021/08/28 02:40:57;;;;;;;12.90;10.55;;;16.20;99.90;;;;;;5073793;28;20021;-87
2021/08/28 02:43:25;;;;;;;10.93;8.70;;;16.20;99.90;;;;;;5071818;28;20035;-87
2021/08/28 02:45:51;;;;;;;12.20;10.20;;;16.20;99.90;;;;;;5073167;28;20029;-87
2021/08/28 02:48:19;;;;;;;11.50;9.35;;;16.20;99.90;;;;;;5073301;28;20028;-87
2021/08/28 02:50:48;;;;;;;12.27;9.18;;;16.20;99.90;;;;;;5071919;28;20060;-86
2021/08/28 02:53:17;;;;;;;11.75;9.02;;;16.20;99.90;;;;;;5073517;28;20039;-87
2021/08/28 02:55:48;;;;;;;12.07;9.18;;;16.30;99.90;;;;;;5073319;28;20383;-87
2021/08/28 02:58:15;;;;;;;11.68;9.57;;;16.30;99.90;;;;;;5071885;28;20059;-87
2021/08/28 03:00:42;;;;;;;12.80;9.05;;;16.30;99.90;;;;;;5073163;28;20028;-87
2021/08/28 03:03:11;;;;;;;11.80;9.48;;;16.40;99.90;;;;;;5073457;28;20029;-87
2021/08/28 03:05:38;;;;;;;11.80;8.93;;;16.50;99.90;;;;;;5073494;28;20035;-87
2021/08/28 03:08:04;;;;;;;11.65;9.55;;;16.50;99.90;;;;;;5071632;28;20032;-86
2021/08/28 03:10:31;;;;;;;11.93;9.38;;;16.60;99.90;;;;;;5072949;28;20074;-87
2021/08/28 03:12:57;;;;;;;9.70;8.10;;;16.60;99.90;;;;;;5071430;28;20083;-87
2021/08/28 03:15:23;;;;;;;12.43;9.65;;;16.70;99.90;;;;;;5071940;28;20025;-87
2021/08/28 03:17:49;;;;;;;11.45;9.68;;;16.70;99.90;;;;;;5071818;28;20068;-86
2021/08/28 03:20:16;;;;;;;11.70;9.15;;;16.80;99.90;;;;;;5074561;28;20021;-87
2021/08/28 03:22:44;;;;;;;9.80;8.45;;;16.90;99.90;;;;;;5076631;28;20062;-87
2021/08/28 03:25:10;;;;;;;9.63;8.15;;;17.00;99.70;;;;;;5075797;28;20063;-87
2021/08/28 03:27:40;;;;;;;11.50;9.57;;;17.10;99.50;;;;;;5076437;28;20099;-87
2021/08/28 03:30:09;;;;;;;11.60;9.95;;;17.10;99.30;;;;;;5075716;28;20418;-87
2021/08/28 03:32:36;;;;;;;12.02;9.52;;;17.20;99.20;;;;;;5075070;28;20464;-87
2021/08/28 03:35:03;;;;;;;10.10;8.23;;;17.30;99.10;;;;;;5075034;28;20032;-86
2021/08/28 03:37:29;;;;;;;13.02;11.02;;;17.30;98.90;;;;;;5075927;28;20048;-87
2021/08/28 03:39:55;;;;;;;12.73;10.65;;;17.40;98.70;;;;;;5075073;28;20110;-87
2021/08/28 03:42:21;;;;;;;12.52;10.70;;;17.50;98.50;;;;;;5076140;28;20029;-87
2021/08/28 03:44:47;;;;;;;12.68;11.10;;;17.50;98.30;;;;;;5076010;28;20027;-86
2021/08/28 03:47:16;;;;;;;14.50;10.50;;;17.60;98.20;;;;;;5076118;28;20467;-87
2021/08/28 03:49:42;;;;;;;11.70;10.05;;;17.70;98.00;;;;;;5075902;28;20064;-87
2021/08/28 03:52:08;;;;;;;11.18;9.30;;;17.70;97.90;;;;;;5075937;28;20036;-87
2021/08/28 03:54:34;;;;;;;12.95;9.93;;;17.70;97.70;;;;;;5074634;28;20126;-86
2021/08/28 03:56:59;;;;;;;10.60;9.27;;;17.80;97.50;;;;;;5075847;28;20032;-87
2021/08/28 03:59:25;;;;;;;11.57;9.57;;;17.80;97.40;;;;;;5075928;28;20422;-87
2021/08/28 04:01:51;;;;;;;12.52;10.38;;;17.80;97.20;;;;;;5074238;28;20032;-86
2021/08/28 04:04:16;;;;;;;10.63;9.40;;;17.80;97.20;;;;;;5075631;28;20402;-87
2021/08/28 04:06:42;;;;;;;11.40;10.05;;;17.80;97.10;;;;;;5075446;28;20478;-87
2021/08/28 04:09:08;;;;;;;11.85;9.60;;;17.90;97.10;;;;;;5075774;28;20103;-87
2021/08/28 04:11:34;;;;;;;11.02;9.80;;;17.90;97.00;;;;;;5075426;28;20133;-87
2021/08/28 04:13:59;;;;;;;10.38;9.05;;;17.90;96.80;;;;;;5075599;28;20031;-87
2021/08/28 04:16:25;;;;;;;11.15;9.43;;;18.10;96.80;;;;;;5074085;28;20029;-86
2021/08/28 04:18:51;;;;;;;11.85;9.35;;;18.20;96.60;;;;;;5075720;28;20021;-87
2021/08/28 04:21:16;;;;;;;10.77;9.65;;;18.30;96.30;;;;;;5074018;28;20031;-87
2021/08/28 04:23:42;;;;;;;12.25;9.20;;;18.40;96.00;;;;;;5074134;28;20070;-87
2021/08/28 04:26:08;;;;;;;10.75;9.48;;;18.50;95.80;;;;;;5075469;28;20046;-89
2021/08/28 04:28:34;;;;;;;10.05;8.35;;;18.60;95.60;;;;;;5074278;28;20056;-87
2021/08/28 04:31:00;;;;;;;10.18;8.63;;;18.70;95.40;;;;;;5075496;28;20056;-86
2021/08/28 04:33:26;;;;;;;10.05;8.95;;;18.80;95.10;;;;;;5075038;28;20055;-87
2021/08/28 04:35:51;;;;;;;11.65;9.35;;;18.90;94.90;;;;;;5074924;28;20032;-87
2021/08/28 04:38:17;;;;;;;11.45;8.80;;;18.90;94.60;;;;;;5073837;28;20472;-86
2021/08/28 04:40:43;;;;;;;9.25;8.18;;;19.00;94.40;;;;;;5074993;28;20376;-87
2021/08/28 04:43:08;;;;;;;10.65;8.75;;;19.00;94.20;;;;;;5074708;28;20035;-87
2021/08/28 04:45:34;;;;;;;10.10;8.55;;;19.00;94.10;;;;;;5073466;28;20029;-87
2021/08/28 04:48:00;;;;;;;11.73;9.18;;;19.00;94.20;;;;;;5074624;28;20024;-87
2021/08/28 04:50:25;;;;;;;10.40;9.30;;;19.00;94.10;;;;;;5072998;28;20073;-87
2021/08/28 04:52:51;;;;;;;11.00;9.07;;;19.00;94.10;;;;;;5075152;28;20033;-87
2021/08/28 04:55:17;;;;;;;10.15;8.90;;;19.10;94.00;;;;;;5074952;28;20036;-87
2021/08/28 04:57:42;;;;;;;10.48;8.80;;;19.20;93.90;;;;;;5074829;28;20036;-87
2021/08/28 05:00:09;;;;;;;11.38;9.07;;;19.30;93.90;;;;;;5073323;28;20024;-88
2021/08/28 05:02:34;;;;;;;9.50;8.50;;;19.40;93.80;;;;;;5074716;28;20036;-87
2021/08/28 05:05:00;;;;;;;9.95;8.30;;;19.50;93.60;;;;;;5074336;28;20371;-87
2021/08/28 05:07:26;;;;;;;8.93;7.85;;;19.60;93.40;;;;;;5073131;28;20056;-87
2021/08/28 05:09:51;;;;;;;8.75;7.72;;;19.80;93.20;;;;;;5074430;28;20028;-87
2021/08/28 05:12:17;;;;;;;10.50;8.63;;;19.90;92.90;;;;;;5074082;28;20045;-87
2021/08/28 05:14:43;;;;;;;8.57;7.68;;;20.00;92.60;;;;;;5074409;28;20452;-87
2021/08/28 05:17:08;;;;;;;8.45;7.28;;;20.00;92.40;;;;;;5072522;28;20039;-87
2021/08/28 05:19:34;;;;;;;8.18;6.68;;;20.00;92.20;;;;;;5072923;28;20029;-87
2021/08/28 05:22:00;;;;;;;9.82;7.78;;;20.00;92.10;;;;;;5075096;28;20082;-87
2021/08/28 05:24:26;;;;;;;8.63;7.43;;;19.90;92.00;;;;;;5074239;28;20352;-87
2021/08/28 05:26:51;;;;;;;9.93;7.43;;;19.90;92.20;;;;;;5072719;28;20066;-87
2021/08/28 05:29:17;;;;;;;8.25;7.22;;;19.90;92.20;;;;;;5072639;28;20020;-87
2021/08/28 05:31:44;;;;;;;9.60;7.53;;;20.00;92.10;;;;;;5073623;28;20588;-86
2021/08/28 05:34:09;;;;;;;9.68;8.02;;;20.10;92.00;;;;;;5073743;28;20020;-87
2021/08/28 05:36:35;;;;;;;8.20;7.05;;;20.10;91.80;;;;;;5073820;28;20047;-88
2021/08/28 05:39:01;;;;;;;9.90;6.68;;;20.20;91.80;;;;;;5072192;28;20423;-88
2021/08/28 05:41:27;;;;;;;7.53;6.57;;;20.30;91.70;;;;;;5072986;28;20033;-87
2021/08/28 05:43:52;;;;;;;9.55;7.10;;;20.40;91.50;;;;;;5072596;28;20029;-88
2021/08/28 05:46:18;;;;;;;8.10;6.15;;;20.50;91.10;;;;;;5072136;28;20024;-88
2021/08/28 05:48:43;;;;;;;8.07;6.55;;;20.60;91.00;;;;;;5072612;28;20055;-88
2021/08/28 05:51:09;;;;;;;8.10;5.70;;;20.70;90.60;;;;;;5072090;28;20351;-88
2021/08/28 05:53:35;;;;;;;8.25;6.85;;;20.90;90.40;;;;;;5073666;28;20040;-88
2021/08/28 05:56:01;;;;;;;9.00;6.82;;;21.00;90.20;;;;;;5072069;28;20033;-87
2021/08/28 05:58:26;;;;;;;10.68;7.47;;;21.10;89.90;;;;;;5072239;28;20397;-88
2021/08/28 06:00:52;;;;;;;10.43;8.35;;;21.20;89.50;;;;;;5071969;28;20470;-88
2021/08/28 06:03:18;;;;;;;10.60;8.07;;;21.40;89.10;;;;;;5073536;28;20503;-87
2021/08/28 06:05:44;;;;;;;12.25;8.27;;;21.50;88.70;;;;;;5073926;28;20024;-87
2021/08/28 06:08:11;;;;;;;9.25;7.25;;;21.60;88.10;;;;;;5073722;28;20021;-87
2021/08/28 06:10:36;;;;;;;11.43;8.43;;;21.80;87.60;;;;;;5072291;28;20031;-88
2021/08/28 06:13:02;;;;;;;12.95;8.80;;;22.00;87.30;;;;;;5071764;28;20048;-88
2021/08/28 06:15:28;;;;;;;10.70;8.05;;;22.10;86.80;;;;;;5073428;28;20037;-88
2021/08/28 06:17:54;;;;;;;11.57;9.00;;;22.30;86.20;;;;;;5071833;28;20059;-88
2021/08/28 06:20:19;;;;;;;25.15;16.75;;;22.50;86.00;;;;;;5074652;28;20482;-89
2021/08/28 06:22:45;;;;;;;45.65;27.20;;;22.70;85.00;;;;;;5081990;28;20056;-88
2021/08/28 06:25:11;;;;;;;41.70;22.75;;;22.90;84.00;;;;;;5073524;28;20020;-88
2021/08/28 06:27:37;;;;;;;26.38;15.32;;;23.30;83.40;;;;;;5073305;28;20451;-88
2021/08/28 06:30:03;;;;;;;16.88;11.77;;;23.60;82.60;;;;;;5071631;28;20040;-89
2021/08/28 06:32:28;;;;;;;15.23;10.23;;;24.00;81.30;;;;;;5071816;28;20064;-88
2021/08/28 06:34:54;;;;;;;12.95;9.13;;;24.30;79.50;;;;;;5073365;28;20059;-88
2021/08/28 06:37:20;;;;;;;8.93;7.53;;;24.50;78.90;;;;;;5073396;28;20089;-89
2021/08/28 06:39:45;;;;;;;8.75;6.72;;;24.60;77.90;;;;;;5073221;28;20021;-88
2021/08/28 06:42:11;;;;;;;7.20;6.38;;;24.80;77.00;;;;;;5071996;28;20551;-88
2021/08/28 06:44:37;;;;;;;8.43;7.05;;;24.90;75.70;;;;;;5071674;28;20024;-88
2021/08/28 06:47:02;;;;;;;7.68;6.10;;;25.00;75.10;;;;;;5071766;28;20063;-88
2021/08/28 06:49:28;;;;;;;7.70;6.32;;;25.00;74.50;;;;;;5072201;28;20396;-88
2021/08/28 06:51:55;;;;;;;9.25;6.43;;;25.10;74.50;;;;;;5072140;28;20158;-88
2021/08/28 06:54:20;;;;;;;8.35;6.97;;;25.10;73.10;;;;;;5074625;28;20032;-88
2021/08/28 06:56:46;;;;;;;8.02;7.07;;;25.10;71.40;;;;;;5075818;28;20024;-88
2021/08/28 06:59:12;;;;;;;9.23;7.22;;;24.90;70.90;;;;;;5075230;28;20028;-88
2021/08/28 07:01:38;;;;;;;7.82;6.43;;;24.80;71.30;;;;;;5074976;28;20029;-87
2021/08/28 07:04:09;;;;;;;7.55;6.10;;;24.80;72.00;;;;;;5075377;28;20021;-87
2021/08/28 07:06:35;;;;;;;9.65;7.60;;;24.80;72.40;;;;;;5073022;28;20510;-88
2021/08/28 07:09:02;;;;;;;9.40;7.85;;;24.80;71.70;;;;;;5087753;28;20035;-87
2021/08/28 07:11:29;;;;;;;9.68;7.50;;;24.80;70.80;;;;;;5079918;28;20124;-87
2021/08/28 07:13:54;;;;;;;9.68;7.80;;;24.70;71.00;;;;;;5075312;28;20032;-88
2021/08/28 07:16:20;;;;;;;8.90;6.70;;;24.70;71.20;;;;;;5076929;28;20024;-89
2021/08/28 07:18:46;;;;;;;8.82;7.20;;;24.70;71.60;;;;;;5075811;28;20020;-89
2021/08/28 07:21:13;;;;;;;8.82;7.18;;;24.70;70.80;;;;;;5078370;28;20036;-89
2021/08/28 07:23:39;;;;;;;7.85;6.85;;;24.70;70.70;;;;;;5086004;28;20043;-89
2021/08/28 07:26:05;;;;;;;8.43;7.38;;;24.70;70.80;;;;;;5086578;28;20046;-89
2021/08/28 07:28:31;;;;;;;9.48;7.97;;;24.70;70.60;;;;;;5085122;28;20064;-88
2021/08/28 07:30:57;;;;;;;7.72;6.75;;;24.70;70.70;;;;;;5077370;28;20027;-89
2021/08/28 07:33:23;;;;;;;8.57;7.18;;;24.70;70.70;;;;;;5075811;28;20052;-88
2021/08/28 07:35:48;;;;;;;7.05;6.35;;;24.70;70.90;;;;;;5076981;28;20024;-88
2021/08/28 07:38:14;;;;;;;7.28;6.30;;;24.70;69.70;;;;;;5076756;28;20416;-88
2021/08/28 07:40:39;;;;;;;6.82;5.53;;;24.60;71.00;;;;;;5077003;28;20088;-87
2021/08/28 07:43:06;;;;;;;7.25;5.45;;;24.60;70.90;;;;;;5076505;28;20056;-88
2021/08/28 07:45:32;;;;;;;6.65;5.72;;;24.70;71.20;;;;;;5075937;28;20515;-88
2021/08/28 07:47:57;;;;;;;7.03;5.60;;;24.80;70.70;;;;;;5075040;28;20028;-87
2021/08/28 07:50:23;;;;;;;6.55;5.63;;;24.70;70.60;;;;;;5076030;28;20032;-87
2021/08/28 07:52:49;;;;;;;6.95;5.88;;;24.70;70.90;;;;;;5075734;28;20078;-88
2021/08/28 07:55:16;;;;;;;6.45;5.65;;;24.70;71.00;;;;;;5076938;28;20028;-88
2021/08/28 07:57:42;;;;;;;6.82;5.75;;;24.70;71.00;;;;;;5086525;28;20411;-88
2021/08/28 08:00:11;;;;;;;7.40;5.88;;;24.70;71.20;;;;;;5094133;28;20047;-88
2021/08/28 08:02:37;;;;;;;7.13;5.63;;;24.70;71.30;;;;;;5092428;28;20027;-87
2021/08/28 08:05:04;;;;;;;5.72;5.20;;;24.60;71.70;;;;;;5091945;28;20035;-87
2021/08/28 08:07:29;;;;;;;7.90;6.35;;;24.50;72.00;;;;;;5094885;28;20032;-88
2021/08/28 08:09:55;;;;;;;7.30;6.05;;;24.40;72.30;;;;;;5093090;28;20021;-88
2021/08/28 08:12:22;;;;;;;7.55;6.35;;;24.40;72.60;;;;;;5093201;28;20061;-88
2021/08/28 08:14:47;;;;;;;5.97;5.32;;;24.30;72.60;;;;;;5093889;28;20028;-88
2021/08/28 08:17:14;;;;;;;6.95;5.28;;;24.30;73.20;;;;;;5095322;28;20032;-88
2021/08/28 08:19:41;;;;;;;5.78;5.18;;;24.30;73.50;;;;;;5095593;28;20028;-89
2021/08/28 08:22:07;;;;;;;7.00;6.30;;;24.50;73.40;;;;;;5095880;28;20036;-88
2021/08/28 08:24:32;;;;;;;6.88;5.72;;;24.60;73.10;;;;;;5095172;28;20024;-88
2021/08/28 08:26:58;;;;;;;5.95;5.32;;;24.60;73.10;;;;;;5094156;28;20085;-87
2021/08/28 08:29:24;;;;;;;7.38;6.25;;;24.60;72.70;;;;;;5093987;28;20024;-87
2021/08/28 08:31:53;;;;;;;7.25;5.68;;;24.50;73.20;;;;;;5093378;28;20031;-88
2021/08/28 08:34:22;;;;;;;7.00;5.75;;;24.50;73.50;;;;;;5095144;28;20028;-88
2021/08/28 08:36:48;;;;;;;7.82;6.00;;;24.50;73.70;;;;;;5094678;28;20035;-88
2021/08/28 08:39:14;;;;;;;8.60;5.53;;;24.60;74.10;;;;;;5093994;28;20024;-88
2021/08/28 08:41:45;;;;;;;7.03;5.63;;;24.60;74.00;;;;;;5094922;28;20032;-88
2021/08/28 08:44:12;;;;;;;7.10;6.40;;;24.70;74.10;;;;;;5095034;28;20074;-88
2021/08/28 08:46:38;;;;;;;8.75;6.35;;;24.90;73.90;;;;;;5093684;28;20035;-87
2021/08/28 08:49:06;;;;;;;8.85;6.97;;;24.90;73.80;;;;;;5093635;28;20097;-87
2021/08/28 08:51:34;;;;;;;7.60;6.70;;;24.90;73.60;;;;;;5094477;28;20070;-88
2021/08/28 08:54:02;;;;;;;7.32;6.35;;;24.80;73.50;;;;;;5094448;28;20149;-87
2021/08/28 08:56:28;;;;;;;7.60;6.43;;;24.70;74.00;;;;;;5093511;28;20093;-89
2021/08/28 08:58:54;;;;;;;6.88;5.90;;;24.70;74.20;;;;;;5095409;28;20036;-88
2021/08/28 09:01:19;;;;;;;11.20;7.25;;;24.60;74.50;;;;;;5094047;28;20024;-89
2021/08/28 09:03:46;;;;;;;7.45;5.88;;;24.60;74.50;;;;;;5094275;28;20034;-89
2021/08/28 09:06:12;;;;;;;6.90;5.78;;;24.60;75.00;;;;;;5094586;28;20024;-88
2021/08/28 09:08:37;;;;;;;7.03;6.32;;;24.80;75.80;;;;;;5093181;28;20395;-87
2021/08/28 09:11:03;;;;;;;9.68;6.32;;;24.90;74.90;;;;;;5095110;28;20024;-90
2021/08/28 09:13:29;;;;;;;6.80;6.03;;;25.10;74.10;;;;;;5096041;28;20040;-92
2021/08/28 09:16:06;;;;;;;5.93;5.32;;;25.10;74.00;;;;;;5096300;28;20141;-88
2021/08/28 09:18:53;;;;;;;6.53;5.70;;;25.30;74.30;;;;;;5082763;28;20064;-88
2021/08/28 09:21:21;;;;;;;5.93;4.88;;;25.50;73.60;;;;;;5100611;28;20028;-87
2021/08/28 09:23:47;;;;;;;5.57;4.85;;;25.70;73.30;;;;;;5094317;28;20035;-88
2021/08/28 09:26:27;;;;;;;4.90;4.30;;;25.90;72.70;;;;;;5093813;28;20020;-88
2021/08/28 09:28:55;;;;;;;6.30;4.78;;;26.10;71.80;;;;;;5094350;28;20036;-88
2021/08/28 09:31:45;;;;;;;6.85;4.90;;;26.20;71.80;;;;;;5092276;28;20028;-89
2021/08/28 09:34:15;;;;;;;6.97;4.75;;;26.50;71.50;;;;;;5092932;28;20036;-89
2021/08/28 09:36:41;;;;;;;5.35;4.85;;;26.70;70.90;;;;;;5094048;28;20031;-89
2021/08/28 09:39:07;;;;;;;5.40;4.72;;;26.80;70.50;;;;;;5092608;28;20024;-89
2021/08/28 09:41:33;;;;;;;6.55;5.85;;;26.90;69.60;;;;;;5076635;28;20093;-89
2021/08/28 09:44:09;;;;;;;5.80;5.05;;;26.90;69.00;;;;;;5096501;28;20034;-89
2021/08/28 09:46:35;;;;;;;6.03;5.43;;;26.80;68.70;;;;;;5095926;28;20042;-88
2021/08/28 09:49:03;;;;;;;5.40;4.90;;;26.80;69.00;;;;;;5090484;28;20093;-89
2021/08/28 09:51:40;;;;;;;5.22;4.30;;;26.70;69.10;;;;;;5091301;28;20485;-88
2021/08/28 09:54:13;;;;;;;5.78;4.90;;;26.70;69.00;;;;;;5093350;28;20028;-88
2021/08/28 09:56:41;;;;;;;5.57;4.82;;;26.70;68.80;;;;;;5092421;28;20031;-88
2021/08/28 09:59:18;;;;;;;6.15;5.43;;;26.60;69.00;;;;;;5092603;28;20035;-88
2021/08/28 10:01:47;;;;;;;6.97;4.97;;;26.40;68.10;;;;;;5091460;28;20123;-87
2021/08/28 10:04:12;;;;;;;6.70;5.47;;;26.10;69.10;;;;;;5092561;28;20032;-89
2021/08/28 10:06:48;;;;;;;5.65;5.05;;;25.90;69.50;;;;;;5091480;28;20177;-88
2021/08/28 10:09:16;;;;;;;5.38;4.88;;;25.70;70.00;;;;;;5091395;28;20028;-88
2021/08/28 10:11:48;;;;;;;6.15;5.05;;;25.60;70.40;;;;;;5092553;28;20486;-87
2021/08/28 10:14:16;;;;;;;5.97;4.88;;;25.50;71.00;;;;;;5081261;28;20150;-88
2021/08/28 10:16:44;;;;;;;5.50;4.97;;;25.40;71.20;;;;;;5093694;28;20419;-88
2021/08/28 10:19:15;;;;;;;6.63;5.93;;;25.40;71.40;;;;;;5092121;28;20029;-87
2021/08/28 10:21:43;;;;;;;6.88;4.95;;;25.40;70.80;;;;;;5082931;28;20154;-88
2021/08/28 10:24:12;;;;;;;5.28;4.78;;;25.40;71.10;;;;;;5089273;28;20089;-87
2021/08/28 10:26:38;;;;;;;5.50;4.38;;;25.50;70.80;;;;;;5091965;28;20441;-88
2021/08/28 10:29:05;;;;;;;6.55;4.93;;;25.50;70.40;;;;;;5089075;28;20147;-87
2021/08/28 10:31:31;;;;;;;7.25;5.35;;;25.60;70.10;;;;;;5084294;28;20036;-87
2021/08/28 10:33:57;;;;;;;5.07;4.57;;;25.60;70.10;;;;;;5089387;28;20031;-87
2021/08/28 10:36:23;;;;;;;5.45;4.80;;;25.70;69.90;;;;;;5075875;28;20028;-87
2021/08/28 10:38:51;;;;;;;10.10;5.93;;;25.90;70.00;;;;;;5076990;28;20096;-85
2021/08/28 10:41:19;;;;;;;6.60;5.60;;;26.00;69.10;;;;;;5085040;28;20027;-88
2021/08/28 10:43:45;;;;;;;5.22;4.70;;;26.10;68.70;;;;;;5090260;28;20086;-88
2021/08/28 10:46:26;;;;;;;5.22;4.72;;;26.20;68.60;;;;;;5085213;28;20024;-87
2021/08/28 10:48:53;;;;;;;5.28;4.78;;;26.40;68.50;;;;;;5077396;28;20056;-88
2021/08/28 10:51:29;;;;;;;5.97;4.80;;;26.50;68.30;;;;;;5087462;28;20420;-87
2021/08/28 10:53:56;;;;;;;4.65;4.20;;;26.60;68.00;;;;;;5092209;28;20036;-88
2021/08/28 10:56:57;;;;;;;5.18;4.68;;;26.80;67.50;;;;;;5093816;28;20028;-88
2021/08/28 10:59:27;;;;;;;7.28;5.90;;;26.90;66.90;;;;;;5090516;28;20047;-88
2021/08/28 11:02:01;;;;;;;6.13;5.53;;;27.00;66.00;;;;;;5093360;28;20032;-87
2021/08/28 11:04:36;;;;;;;6.25;5.65;;;26.80;65.90;;;;;;5094216;28;20049;-86
2021/08/28 11:07:18;;;;;;;6.03;5.43;;;26.80;66.50;;;;;;5092126;28;20024;-87
2021/08/28 11:10:12;;;;;;;5.63;4.68;;;26.90;66.50;;;;;;5093949;28;20028;-87
2021/08/28 11:13:01;;;;;;;5.47;4.38;;;27.00;65.90;;;;;;5090859;28;20047;-88
2021/08/28 11:15:28;;;;;;;5.30;4.80;;;27.10;66.30;;;;;;5095952;28;20035;-86
2021/08/28 11:18:01;;;;;;;4.78;4.28;;;27.30;66.20;;;;;;5095057;28;20059;-87
2021/08/28 11:20:44;;;;;;;4.53;4.13;;;27.50;65.70;;;;;;5096355;28;20431;-87
2021/08/28 11:23:17;;;;;;;5.32;4.15;;;27.50;65.10;;;;;;5094041;28;20028;-88
2021/08/28 11:25:44;;;;;;;;;;;27.50;64.90;;;;;;5093895;28;20075;-87
2021/08/28 11:28:11;;;;;;;4.80;4.32;;;27.40;64.10;;;;;;5091822;28;19908;-89
2021/08/28 11:30:54;;;;;;;5.18;4.65;;;27.40;65.10;;;;;;5092220;28;20089;-89
2021/08/28 11:33:20;;;;;;;5.45;4.65;;;27.50;62.80;;;;;;5092358;28;20127;-87
2021/08/28 11:36:06;;;;;;;5.82;5.00;;;27.50;64.70;;;;;;5092599;28;20059;-87
2021/08/28 11:38:45;;;;;;;6.32;5.72;;;27.70;63.90;;;;;;5091480;28;20123;-88
2021/08/28 11:41:12;;;;;;;5.43;4.93;;;27.70;64.20;;;;;;5091741;28;20035;-87
2021/08/28 11:43:40;;;;;;;5.65;4.82;;;27.70;64.10;;;;;;5094309;28;20352;-88
2021/08/28 11:46:27;;;;;;;5.10;4.30;;;27.70;64.20;;;;;;5095332;28;20050;-89
2021/08/28 11:48:53;;;;;;;6.07;4.63;;;27.80;64.00;;;;;;5093383;28;20475;-88
2021/08/28 11:51:26;;;;;;;5.55;4.95;;;27.90;63.80;;;;;;5093781;28;20383;-88
2021/08/28 11:53:55;;;;;;;;;;;27.90;61.40;;;;;;5095515;28;20028;-88
2021/08/28 11:56:24;;;;;;;4.68;4.20;;;27.80;59.30;;;;;;5083018;28;19926;-88
2021/08/28 11:58:59;;;;;;;5.72;4.50;;;27.70;62.40;;;;;;5093903;28;20078;-88
2021/08/28 12:01:35;;;;;;;3.92;3.53;;;27.80;62.70;;;;;;5092976;28;20462;-89
2021/08/28 12:04:12;;;;;;;6.05;4.43;;;27.90;62.50;;;;;;5082932;28;20023;-89
2021/08/28 12:06:40;;;;;;;4.63;4.20;;;28.00;60.60;;;;;;5094250;28;20418;-88
2021/08/28 12:09:10;;;;;;;4.72;4.30;;;27.90;59.80;;;;;;5095126;28;20456;-89
2021/08/28 12:11:37;;;;;;;5.05;4.55;;;27.80;59.30;;;;;;5093617;28;20127;-89
2021/08/28 12:14:04;;;;;;;4.70;4.30;;;27.70;59.80;;;;;;5093869;28;20101;-89
2021/08/28 12:16:38;;;;;;;4.90;4.30;;;27.50;60.10;;;;;;5094217;28;20024;-89
2021/08/28 12:19:18;;;;;;;4.07;3.67;;;27.50;60.50;;;;;;5091933;28;20048;-88
2021/08/28 12:21:49;;;;;;;4.88;3.72;;;27.50;60.70;;;;;;5092704;28;20077;-88
2021/08/28 12:24:19;;;;;;;4.38;3.97;;;27.50;61.10;;;;;;5094630;28;20024;-88
2021/08/28 12:26:50;;;;;;;5.90;4.20;;;27.60;61.30;;;;;;5095761;28;20348;-89
2021/08/28 12:29:31;;;;;;;3.63;3.22;;;27.80;61.00;;;;;;5093106;28;20028;-88
2021/08/28 12:32:04;;;;;;;4.78;4.10;;;28.00;60.70;;;;;;5093214;28;20406;-88
2021/08/28 12:34:32;;;;;;;;;;;28.20;59.00;;;;;;5093798;28;20028;-87
2021/08/28 12:37:08;;;;;;;4.40;4.00;;;28.20;57.50;;;;;;5092603;28;19954;-89
2021/08/28 12:39:36;;;;;;;4.03;3.63;;;28.20;58.60;;;;;;5092842;28;20497;-88
2021/08/28 12:42:03;;;;;;;4.00;3.60;;;28.20;58.30;;;;;;5093665;28;20027;-88
2021/08/28 12:44:30;;;;;;;4.50;4.05;;;28.20;58.20;;;;;;5093288;28;20028;-88
2021/08/28 12:46:57;;;;;;;5.95;3.53;;;28.30;57.10;;;;;;5093168;28;20024;-87